sensor_id;sensor_type;location;lat;lon;timestamp;P1;durP1;ratioP1;P2;durP2;ratioP2
19794;SDS011;10057;59.402;17.866;2022-07-29T00:02:14;1.70;;;0.50;;
19794;SDS011;10057;59.402;17.866;2022-07-29T00:04:41;1.47;;;0.60;;
19794;SDS011;10057;59.402;17.866;2022-07-29T00:07:08;1.23;;;0.40;;
19794;SDS011;10057;59.402;17.866;2022-07-29T00:09:35;0.87;;;0.40;;
19794;SDS011;10057;59.402;17.866;2022-07-29T00:12:17;2.30;;;0.60;;
19794;SDS011;10057;59.402;17.866;2022-07-29T00:14:54;1.37;;;0.40;;
19794;SDS011;10057;59.402;17.866;2022-07-29T00:17:22;0.63;;;0.30;;
19794;SDS011;10057;59.402;17.866;2022-07-29T00:19:49;1.30;;;0.40;;
19794;SDS011;10057;59.402;17.866;2022-07-29T00:22:16;1.23;;;0.30;;
19794;SDS011;10057;59.402;17.866;2022-07-29T00:24:43;0.60;;;0.30;;
19794;SDS011;10057;59.402;17.866;2022-07-29T00:27:10;1.70;;;0.40;;
19794;SDS011;10057;59.402;17.866;2022-07-29T00:29:36;1.90;;;0.30;;
19794;SDS011;10057;59.402;17.866;2022-07-29T00:32:06;2.27;;;0.33;;
19794;SDS011;10057;59.402;17.866;2022-07-29T00:34:33;0.90;;;0.50;;
19794;SDS011;10057;59.402;17.866;2022-07-29T00:37:18;3.90;;;0.40;;
19794;SDS011;10057;59.402;17.866;2022-07-29T00:39:45;1.57;;;0.70;;
19794;SDS011;10057;59.402;17.866;2022-07-29T00:42:11;3.10;;;1.13;;
19794;SDS011;10057;59.402;17.866;2022-07-29T00:44:40;5.40;;;2.10;;
19794;SDS011;10057;59.402;17.866;2022-07-29T00:47:09;9.30;;;3.40;;
19794;SDS011;10057;59.402;17.866;2022-07-29T00:49:37;10.70;;;3.40;;
19794;SDS011;10057;59.402;17.866;2022-07-29T00:52:05;7.37;;;2.93;;
19794;SDS011;10057;59.402;17.866;2022-07-29T00:54:33;3.47;;;1.13;;
19794;SDS011;10057;59.402;17.866;2022-07-29T00:57:09;2.20;;;0.93;;
19794;SDS011;10057;59.402;17.866;2022-07-29T00:59:37;3.67;;;1.27;;
19794;SDS011;10057;59.402;17.866;2022-07-29T01:02:04;3.37;;;1.07;;
19794;SDS011;10057;59.402;17.866;2022-07-29T01:04:31;6.53;;;0.80;;
19794;SDS011;10057;59.402;17.866;2022-07-29T01:06:58;3.80;;;1.10;;
19794;SDS011;10057;59.402;17.866;2022-07-29T01:09:28;4.17;;;1.00;;
19794;SDS011;10057;59.402;17.866;2022-07-29T01:12:10;2.90;;;0.83;;
19794;SDS011;10057;59.402;17.866;2022-07-29T01:14:39;3.80;;;1.10;;
19794;SDS011;10057;59.402;17.866;2022-07-29T01:20:01;2.70;;;1.00;;
19794;SDS011;10057;59.402;17.866;2022-07-29T01:31:10;3.13;;;0.80;;
19794;SDS011;10057;59.402;17.866;2022-07-29T01:33:53;1.93;;;0.83;;
19794;SDS011;10057;59.402;17.866;2022-07-29T01:36:31;1.73;;;1.03;;
19794;SDS011;10057;59.402;17.866;2022-07-29T01:39:05;2.27;;;1.10;;
19794;SDS011;10057;59.402;17.866;2022-07-29T01:41:37;4.47;;;1.13;;
19794;SDS011;10057;59.402;17.866;2022-07-29T01:44:14;4.20;;;0.97;;
19794;SDS011;10057;59.402;17.866;2022-07-29T01:46:49;2.97;;;1.07;;
19794;SDS011;10057;59.402;17.866;2022-07-29T01:49:21;2.90;;;1.07;;
19794;SDS011;10057;59.402;17.866;2022-07-29T01:52:00;3.80;;;0.80;;
19794;SDS011;10057;59.402;17.866;2022-07-29T01:54:39;3.23;;;1.00;;
19794;SDS011;10057;59.402;17.866;2022-07-29T01:57:13;2.37;;;0.77;;
19794;SDS011;10057;59.402;17.866;2022-07-29T01:59:43;3.70;;;1.03;;
19794;SDS011;10057;59.402;17.866;2022-07-29T02:02:13;3.93;;;0.97;;
19794;SDS011;10057;59.402;17.866;2022-07-29T02:04:43;3.70;;;1.03;;
19794;SDS011;10057;59.402;17.866;2022-07-29T02:07:15;2.03;;;0.77;;
19794;SDS011;10057;59.402;17.866;2022-07-29T02:09:45;4.67;;;1.03;;
19794;SDS011;10057;59.402;17.866;2022-07-29T02:12:14;2.03;;;1.03;;
19794;SDS011;10057;59.402;17.866;2022-07-29T02:14:44;3.63;;;1.00;;
19794;SDS011;10057;59.402;17.866;2022-07-29T02:17:13;3.67;;;1.03;;
19794;SDS011;10057;59.402;17.866;2022-07-29T02:19:45;3.23;;;1.20;;
19794;SDS011;10057;59.402;17.866;2022-07-29T02:22:13;3.80;;;1.00;;
19794;SDS011;10057;59.402;17.866;2022-07-29T02:24:42;4.80;;;1.07;;
19794;SDS011;10057;59.402;17.866;2022-07-29T02:27:10;4.20;;;1.30;;
19794;SDS011;10057;59.402;17.866;2022-07-29T02:29:39;4.37;;;1.20;;
19794;SDS011;10057;59.402;17.866;2022-07-29T02:32:06;6.53;;;1.33;;
19794;SDS011;10057;59.402;17.866;2022-07-29T02:34:37;1.87;;;0.80;;
19794;SDS011;10057;59.402;17.866;2022-07-29T02:37:07;4.53;;;0.90;;
19794;SDS011;10057;59.402;17.866;2022-07-29T02:39:35;4.10;;;0.90;;
19794;SDS011;10057;59.402;17.866;2022-07-29T02:42:05;6.27;;;1.00;;
19794;SDS011;10057;59.402;17.866;2022-07-29T02:44:34;8.33;;;1.07;;
19794;SDS011;10057;59.402;17.866;2022-07-29T02:49:37;5.43;;;0.80;;
19794;SDS011;10057;59.402;17.866;2022-07-29T02:52:12;7.93;;;1.30;;
19794;SDS011;10057;59.402;17.866;2022-07-29T02:55:02;5.60;;;0.80;;
19794;SDS011;10057;59.402;17.866;2022-07-29T02:57:41;9.23;;;1.00;;
19794;SDS011;10057;59.402;17.866;2022-07-29T03:00:21;7.63;;;0.83;;
19794;SDS011;10057;59.402;17.866;2022-07-29T03:02:50;5.13;;;1.10;;
19794;SDS011;10057;59.402;17.866;2022-07-29T03:05:20;7.53;;;0.97;;
19794;SDS011;10057;59.402;17.866;2022-07-29T03:08:00;6.40;;;0.93;;
19794;SDS011;10057;59.402;17.866;2022-07-29T03:10:29;5.20;;;0.90;;
19794;SDS011;10057;59.402;17.866;2022-07-29T03:12:57;6.90;;;1.23;;
19794;SDS011;10057;59.402;17.866;2022-07-29T03:15:25;5.40;;;0.73;;
19794;SDS011;10057;59.402;17.866;2022-07-29T03:17:52;3.80;;;0.87;;
19794;SDS011;10057;59.402;17.866;2022-07-29T03:20:20;3.70;;;0.80;;
19794;SDS011;10057;59.402;17.866;2022-07-29T03:22:47;8.93;;;1.00;;
19794;SDS011;10057;59.402;17.866;2022-07-29T03:25:15;4.10;;;1.00;;
19794;SDS011;10057;59.402;17.866;2022-07-29T03:27:43;3.00;;;0.83;;
19794;SDS011;10057;59.402;17.866;2022-07-29T03:30:11;7.23;;;1.20;;
19794;SDS011;10057;59.402;17.866;2022-07-29T03:32:47;8.13;;;1.10;;
19794;SDS011;10057;59.402;17.866;2022-07-29T03:35:17;3.97;;;0.90;;
19794;SDS011;10057;59.402;17.866;2022-07-29T03:37:47;4.53;;;0.87;;
19794;SDS011;10057;59.402;17.866;2022-07-29T03:40:16;5.97;;;1.10;;
19794;SDS011;10057;59.402;17.866;2022-07-29T03:42:48;6.63;;;1.20;;
19794;SDS011;10057;59.402;17.866;2022-07-29T03:45:17;12.97;;;1.07;;
19794;SDS011;10057;59.402;17.866;2022-07-29T03:47:59;4.30;;;1.43;;
19794;SDS011;10057;59.402;17.866;2022-07-29T03:50:28;5.13;;;0.97;;
19794;SDS011;10057;59.402;17.866;2022-07-29T03:52:57;13.83;;;0.90;;
19794;SDS011;10057;59.402;17.866;2022-07-29T03:55:24;5.87;;;0.97;;
19794;SDS011;10057;59.402;17.866;2022-07-29T03:57:52;7.20;;;1.23;;
19794;SDS011;10057;59.402;17.866;2022-07-29T04:00:19;7.20;;;1.30;;
19794;SDS011;10057;59.402;17.866;2022-07-29T04:02:46;4.33;;;0.87;;
19794;SDS011;10057;59.402;17.866;2022-07-29T04:05:15;4.73;;;0.80;;
19794;SDS011;10057;59.402;17.866;2022-07-29T04:07:45;10.20;;;1.00;;
19794;SDS011;10057;59.402;17.866;2022-07-29T04:10:13;3.63;;;0.80;;
19794;SDS011;10057;59.402;17.866;2022-07-29T04:12:41;4.80;;;0.60;;
19794;SDS011;10057;59.402;17.866;2022-07-29T04:15:09;5.00;;;0.70;;
19794;SDS011;10057;59.402;17.866;2022-07-29T04:17:36;2.97;;;0.83;;
19794;SDS011;10057;59.402;17.866;2022-07-29T04:20:03;3.00;;;0.77;;
19794;SDS011;10057;59.402;17.866;2022-07-29T04:22:31;2.37;;;0.57;;
19794;SDS011;10057;59.402;17.866;2022-07-29T04:24:57;3.87;;;0.67;;
19794;SDS011;10057;59.402;17.866;2022-07-29T04:27:29;2.30;;;0.80;;
19794;SDS011;10057;59.402;17.866;2022-07-29T04:29:55;2.40;;;0.43;;
19794;SDS011;10057;59.402;17.866;2022-07-29T04:32:23;4.03;;;0.60;;
19794;SDS011;10057;59.402;17.866;2022-07-29T04:34:53;1.83;;;0.70;;
19794;SDS011;10057;59.402;17.866;2022-07-29T04:37:19;1.70;;;0.70;;
19794;SDS011;10057;59.402;17.866;2022-07-29T04:39:46;0.87;;;0.60;;
19794;SDS011;10057;59.402;17.866;2022-07-29T04:42:12;1.63;;;0.63;;
19794;SDS011;10057;59.402;17.866;2022-07-29T04:44:39;2.23;;;0.57;;
19794;SDS011;10057;59.402;17.866;2022-07-29T04:47:08;5.53;;;0.80;;
19794;SDS011;10057;59.402;17.866;2022-07-29T04:49:37;7.50;;;0.70;;
19794;SDS011;10057;59.402;17.866;2022-07-29T04:52:04;6.43;;;0.90;;
19794;SDS011;10057;59.402;17.866;2022-07-29T04:54:32;2.60;;;0.60;;
19794;SDS011;10057;59.402;17.866;2022-07-29T04:56:59;5.20;;;0.60;;
19794;SDS011;10057;59.402;17.866;2022-07-29T04:59:26;1.60;;;0.70;;
19794;SDS011;10057;59.402;17.866;2022-07-29T05:01:53;4.63;;;0.83;;
19794;SDS011;10057;59.402;17.866;2022-07-29T05:04:20;3.87;;;0.60;;
19794;SDS011;10057;59.402;17.866;2022-07-29T05:06:46;2.87;;;0.60;;
19794;SDS011;10057;59.402;17.866;2022-07-29T05:09:13;9.57;;;0.80;;
19794;SDS011;10057;59.402;17.866;2022-07-29T05:11:40;2.20;;;0.50;;
19794;SDS011;10057;59.402;17.866;2022-07-29T05:14:07;1.53;;;0.70;;
19794;SDS011;10057;59.402;17.866;2022-07-29T05:16:33;6.23;;;0.70;;
19794;SDS011;10057;59.402;17.866;2022-07-29T05:19:00;1.30;;;0.60;;
19794;SDS011;10057;59.402;17.866;2022-07-29T05:21:27;1.13;;;0.63;;
19794;SDS011;10057;59.402;17.866;2022-07-29T05:23:53;2.83;;;0.40;;
19794;SDS011;10057;59.402;17.866;2022-07-29T05:26:20;1.20;;;0.30;;
19794;SDS011;10057;59.402;17.866;2022-07-29T05:28:47;3.07;;;0.40;;
19794;SDS011;10057;59.402;17.866;2022-07-29T05:31:13;4.07;;;0.40;;
19794;SDS011;10057;59.402;17.866;2022-07-29T05:33:41;1.67;;;0.40;;
19794;SDS011;10057;59.402;17.866;2022-07-29T05:36:08;0.47;;;0.30;;
19794;SDS011;10057;59.402;17.866;2022-07-29T05:38:35;6.77;;;0.60;;
19794;SDS011;10057;59.402;17.866;2022-07-29T05:41:02;5.77;;;0.67;;
19794;SDS011;10057;59.402;17.866;2022-07-29T05:43:30;2.40;;;0.30;;
19794;SDS011;10057;59.402;17.866;2022-07-29T05:45:56;1.63;;;0.40;;
19794;SDS011;10057;59.402;17.866;2022-07-29T05:48:24;1.20;;;0.37;;
19794;SDS011;10057;59.402;17.866;2022-07-29T05:50:50;3.43;;;0.50;;
19794;SDS011;10057;59.402;17.866;2022-07-29T05:53:17;1.97;;;0.40;;
19794;SDS011;10057;59.402;17.866;2022-07-29T05:55:46;2.23;;;0.40;;
19794;SDS011;10057;59.402;17.866;2022-07-29T05:58:13;2.07;;;0.40;;
19794;SDS011;10057;59.402;17.866;2022-07-29T06:00:40;0.60;;;0.30;;
19794;SDS011;10057;59.402;17.866;2022-07-29T06:03:07;2.57;;;0.40;;
19794;SDS011;10057;59.402;17.866;2022-07-29T06:05:34;1.50;;;0.47;;
19794;SDS011;10057;59.402;17.866;2022-07-29T06:08:00;1.70;;;0.30;;
19794;SDS011;10057;59.402;17.866;2022-07-29T06:10:27;0.50;;;0.30;;
19794;SDS011;10057;59.402;17.866;2022-07-29T06:12:54;2.67;;;0.20;;
19794;SDS011;10057;59.402;17.866;2022-07-29T06:15:20;0.27;;;0.20;;
19794;SDS011;10057;59.402;17.866;2022-07-29T06:17:47;0.20;;;0.20;;
19794;SDS011;10057;59.402;17.866;2022-07-29T06:20:29;0.33;;;0.20;;
19794;SDS011;10057;59.402;17.866;2022-07-29T06:22:57;1.00;;;0.30;;
19794;SDS011;10057;59.402;17.866;2022-07-29T06:25:24;1.13;;;0.20;;
19794;SDS011;10057;59.402;17.866;2022-07-29T06:27:51;0.40;;;0.30;;
19794;SDS011;10057;59.402;17.866;2022-07-29T06:30:18;0.30;;;0.20;;
19794;SDS011;10057;59.402;17.866;2022-07-29T06:32:45;0.30;;;0.20;;
19794;SDS011;10057;59.402;17.866;2022-07-29T06:35:11;0.20;;;0.20;;
19794;SDS011;10057;59.402;17.866;2022-07-29T06:37:58;1.20;;;0.30;;
19794;SDS011;10057;59.402;17.866;2022-07-29T06:40:25;1.13;;;0.27;;
19794;SDS011;10057;59.402;17.866;2022-07-29T06:43:11;1.80;;;0.30;;
19794;SDS011;10057;59.402;17.866;2022-07-29T06:45:37;1.23;;;0.30;;
19794;SDS011;10057;59.402;17.866;2022-07-29T06:48:08;0.20;;;0.20;;
19794;SDS011;10057;59.402;17.866;2022-07-29T06:50:35;0.30;;;0.20;;
19794;SDS011;10057;59.402;17.866;2022-07-29T06:53:02;0.20;;;0.20;;
19794;SDS011;10057;59.402;17.866;2022-07-29T06:55:29;0.20;;;0.20;;
19794;SDS011;10057;59.402;17.866;2022-07-29T06:57:56;3.20;;;0.30;;
19794;SDS011;10057;59.402;17.866;2022-07-29T07:00:22;0.30;;;0.20;;
19794;SDS011;10057;59.402;17.866;2022-07-29T07:02:49;0.40;;;0.20;;
19794;SDS011;10057;59.402;17.866;2022-07-29T07:05:16;1.43;;;0.20;;
19794;SDS011;10057;59.402;17.866;2022-07-29T07:07:42;1.90;;;0.30;;
19794;SDS011;10057;59.402;17.866;2022-07-29T07:10:09;2.00;;;0.20;;
19794;SDS011;10057;59.402;17.866;2022-07-29T07:12:36;5.30;;;0.50;;
19794;SDS011;10057;59.402;17.866;2022-07-29T07:15:02;1.03;;;0.30;;
19794;SDS011;10057;59.402;17.866;2022-07-29T07:17:29;0.20;;;0.20;;
19794;SDS011;10057;59.402;17.866;2022-07-29T07:19:56;4.73;;;0.23;;
19794;SDS011;10057;59.402;17.866;2022-07-29T07:22:23;0.77;;;0.23;;
19794;SDS011;10057;59.402;17.866;2022-07-29T07:24:49;0.30;;;0.20;;
19794;SDS011;10057;59.402;17.866;2022-07-29T07:27:16;0.83;;;0.30;;
19794;SDS011;10057;59.402;17.866;2022-07-29T07:29:43;1.33;;;0.40;;
19794;SDS011;10057;59.402;17.866;2022-07-29T07:32:09;1.30;;;0.20;;
19794;SDS011;10057;59.402;17.866;2022-07-29T07:34:36;0.80;;;0.40;;
19794;SDS011;10057;59.402;17.866;2022-07-29T07:37:04;0.70;;;0.30;;
19794;SDS011;10057;59.402;17.866;2022-07-29T07:39:31;0.47;;;0.20;;
19794;SDS011;10057;59.402;17.866;2022-07-29T07:41:58;1.60;;;0.30;;
19794;SDS011;10057;59.402;17.866;2022-07-29T07:44:25;0.30;;;0.20;;
19794;SDS011;10057;59.402;17.866;2022-07-29T07:46:52;0.57;;;0.30;;
19794;SDS011;10057;59.402;17.866;2022-07-29T07:49:19;0.20;;;0.17;;
19794;SDS011;10057;59.402;17.866;2022-07-29T07:51:47;1.43;;;0.30;;
19794;SDS011;10057;59.402;17.866;2022-07-29T07:54:16;2.73;;;0.30;;
19794;SDS011;10057;59.402;17.866;2022-07-29T07:56:46;1.23;;;0.20;;
19794;SDS011;10057;59.402;17.866;2022-07-29T07:59:18;0.83;;;0.20;;
19794;SDS011;10057;59.402;17.866;2022-07-29T08:01:45;0.50;;;0.27;;
19794;SDS011;10057;59.402;17.866;2022-07-29T08:04:21;0.80;;;0.30;;
19794;SDS011;10057;59.402;17.866;2022-07-29T08:06:54;0.80;;;0.20;;
19794;SDS011;10057;59.402;17.866;2022-07-29T08:09:21;0.70;;;0.30;;
19794;SDS011;10057;59.402;17.866;2022-07-29T08:11:55;0.40;;;0.30;;
19794;SDS011;10057;59.402;17.866;2022-07-29T08:14:24;1.10;;;0.30;;
19794;SDS011;10057;59.402;17.866;2022-07-29T08:16:51;2.30;;;0.40;;
19794;SDS011;10057;59.402;17.866;2022-07-29T08:19:18;0.20;;;0.20;;
19794;SDS011;10057;59.402;17.866;2022-07-29T08:21:45;4.03;;;0.37;;
19794;SDS011;10057;59.402;17.866;2022-07-29T08:24:11;2.77;;;0.30;;
19794;SDS011;10057;59.402;17.866;2022-07-29T08:26:57;1.20;;;0.30;;
19794;SDS011;10057;59.402;17.866;2022-07-29T08:29:23;1.53;;;0.27;;
19794;SDS011;10057;59.402;17.866;2022-07-29T08:31:50;2.10;;;0.40;;
19794;SDS011;10057;59.402;17.866;2022-07-29T08:34:17;0.30;;;0.20;;
19794;SDS011;10057;59.402;17.866;2022-07-29T08:36:52;0.47;;;0.30;;
19794;SDS011;10057;59.402;17.866;2022-07-29T08:39:18;0.30;;;0.30;;
19794;SDS011;10057;59.402;17.866;2022-07-29T08:41:45;0.73;;;0.30;;
19794;SDS011;10057;59.402;17.866;2022-07-29T08:44:22;0.83;;;0.20;;
19794;SDS011;10057;59.402;17.866;2022-07-29T08:46:56;0.83;;;0.30;;
19794;SDS011;10057;59.402;17.866;2022-07-29T08:49:23;0.40;;;0.33;;
19794;SDS011;10057;59.402;17.866;2022-07-29T08:51:50;0.53;;;0.23;;
19794;SDS011;10057;59.402;17.866;2022-07-29T08:54:17;1.73;;;0.23;;
19794;SDS011;10057;59.402;17.866;2022-07-29T08:56:48;3.83;;;0.30;;
19794;SDS011;10057;59.402;17.866;2022-07-29T08:59:19;0.20;;;0.17;;
19794;SDS011;10057;59.402;17.866;2022-07-29T09:01:48;0.40;;;0.30;;
19794;SDS011;10057;59.402;17.866;2022-07-29T09:04:19;0.57;;;0.30;;
19794;SDS011;10057;59.402;17.866;2022-07-29T09:06:47;0.80;;;0.30;;
19794;SDS011;10057;59.402;17.866;2022-07-29T09:09:15;0.80;;;0.20;;
19794;SDS011;10057;59.402;17.866;2022-07-29T09:11:42;1.23;;;0.30;;
19794;SDS011;10057;59.402;17.866;2022-07-29T09:14:10;1.60;;;0.30;;
19794;SDS011;10057;59.402;17.866;2022-07-29T09:16:52;1.00;;;0.23;;
19794;SDS011;10057;59.402;17.866;2022-07-29T09:21:47;1.60;;;0.30;;
19794;SDS011;10057;59.402;17.866;2022-07-29T09:24:42;0.33;;;0.20;;
19794;SDS011;10057;59.402;17.866;2022-07-29T09:27:11;0.50;;;0.30;;
19794;SDS011;10057;59.402;17.866;2022-07-29T09:29:38;0.27;;;0.20;;
19794;SDS011;10057;59.402;17.866;2022-07-29T09:32:06;0.33;;;0.23;;
19794;SDS011;10057;59.402;17.866;2022-07-29T09:34:36;1.53;;;0.30;;
19794;SDS011;10057;59.402;17.866;2022-07-29T09:37:03;1.90;;;0.30;;
19794;SDS011;10057;59.402;17.866;2022-07-29T09:42:04;0.27;;;0.20;;
19794;SDS011;10057;59.402;17.866;2022-07-29T09:44:42;1.40;;;0.20;;
19794;SDS011;10057;59.402;17.866;2022-07-29T09:47:18;0.37;;;0.30;;
19794;SDS011;10057;59.402;17.866;2022-07-29T09:49:52;0.93;;;0.30;;
19794;SDS011;10057;59.402;17.866;2022-07-29T09:52:19;0.70;;;0.30;;
19794;SDS011;10057;59.402;17.866;2022-07-29T09:54:47;0.93;;;0.30;;
19794;SDS011;10057;59.402;17.866;2022-07-29T09:57:24;0.20;;;0.20;;
19794;SDS011;10057;59.402;17.866;2022-07-29T10:02:30;0.40;;;0.20;;
19794;SDS011;10057;59.402;17.866;2022-07-29T10:05:00;0.30;;;0.20;;
19794;SDS011;10057;59.402;17.866;2022-07-29T10:07:42;0.53;;;0.30;;
19794;SDS011;10057;59.402;17.866;2022-07-29T10:10:20;0.27;;;0.20;;
19794;SDS011;10057;59.402;17.866;2022-07-29T10:13:02;0.73;;;0.20;;
19794;SDS011;10057;59.402;17.866;2022-07-29T10:15:38;1.83;;;0.30;;
19794;SDS011;10057;59.402;17.866;2022-07-29T10:18:07;0.50;;;0.30;;
19794;SDS011;10057;59.402;17.866;2022-07-29T10:20:35;0.30;;;0.30;;
19794;SDS011;10057;59.402;17.866;2022-07-29T10:23:02;0.20;;;0.20;;
19794;SDS011;10057;59.402;17.866;2022-07-29T10:25:29;0.95;;;0.30;;
19794;SDS011;10057;59.402;17.866;2022-07-29T10:27:55;0.50;;;0.20;;
19794;SDS011;10057;59.402;17.866;2022-07-29T10:30:23;0.53;;;0.30;;
19794;SDS011;10057;59.402;17.866;2022-07-29T10:33:06;0.30;;;0.20;;
19794;SDS011;10057;59.402;17.866;2022-07-29T10:44:20;0.20;;;0.20;;
19794;SDS011;10057;59.402;17.866;2022-07-29T10:46:49;0.95;;;0.30;;
19794;SDS011;10057;59.402;17.866;2022-07-29T10:49:18;2.03;;;0.40;;
19794;SDS011;10057;59.402;17.866;2022-07-29T11:02:42;0.32;;;0.30;;
19794;SDS011;10057;59.402;17.866;2022-07-29T11:07:40;0.30;;;0.30;;
19794;SDS011;10057;59.402;17.866;2022-07-29T11:10:45;0.40;;;0.30;;
19794;SDS011;10057;59.402;17.866;2022-07-29T11:13:41;0.43;;;0.30;;
19794;SDS011;10057;59.402;17.866;2022-07-29T11:16:11;1.40;;;0.40;;
19794;SDS011;10057;59.402;17.866;2022-07-29T11:21:42;0.55;;;0.30;;
19794;SDS011;10057;59.402;17.866;2022-07-29T11:24:21;0.30;;;0.22;;
19794;SDS011;10057;59.402;17.866;2022-07-29T11:29:39;0.22;;;0.20;;
19794;SDS011;10057;59.402;17.866;2022-07-29T11:32:19;1.60;;;0.32;;
19794;SDS011;10057;59.402;17.866;2022-07-29T11:43:46;0.60;;;0.30;;
19794;SDS011;10057;59.402;17.866;2022-07-29T11:46:16;0.35;;;0.28;;
19794;SDS011;10057;59.402;17.866;2022-07-29T11:49:04;0.50;;;0.30;;
19794;SDS011;10057;59.402;17.866;2022-07-29T11:51:35;1.27;;;0.35;;
19794;SDS011;10057;59.402;17.866;2022-07-29T11:54:13;1.00;;;0.30;;
19794;SDS011;10057;59.402;17.866;2022-07-29T11:56:52;0.40;;;0.30;;
19794;SDS011;10057;59.402;17.866;2022-07-29T11:59:19;0.30;;;0.30;;
19794;SDS011;10057;59.402;17.866;2022-07-29T12:01:57;0.32;;;0.32;;
19794;SDS011;10057;59.402;17.866;2022-07-29T12:04:55;0.40;;;0.40;;
19794;SDS011;10057;59.402;17.866;2022-07-29T12:07:29;0.35;;;0.25;;
19794;SDS011;10057;59.402;17.866;2022-07-29T12:10:00;0.40;;;0.30;;
19794;SDS011;10057;59.402;17.866;2022-07-29T12:12:28;0.50;;;0.40;;
19794;SDS011;10057;59.402;17.866;2022-07-29T12:14:54;0.43;;;0.22;;
19794;SDS011;10057;59.402;17.866;2022-07-29T12:17:25;0.20;;;0.20;;
19794;SDS011;10057;59.402;17.866;2022-07-29T12:19:58;3.53;;;0.20;;
19794;SDS011;10057;59.402;17.866;2022-07-29T12:22:31;0.85;;;0.30;;
19794;SDS011;10057;59.402;17.866;2022-07-29T12:25:03;0.20;;;0.20;;
19794;SDS011;10057;59.402;17.866;2022-07-29T12:28:00;0.50;;;0.30;;
19794;SDS011;10057;59.402;17.866;2022-07-29T12:30:34;0.20;;;0.20;;
19794;SDS011;10057;59.402;17.866;2022-07-29T12:33:16;1.08;;;0.35;;
19794;SDS011;10057;59.402;17.866;2022-07-29T12:35:56;0.30;;;0.30;;
19794;SDS011;10057;59.402;17.866;2022-07-29T12:38:33;0.43;;;0.25;;
19794;SDS011;10057;59.402;17.866;2022-07-29T12:41:02;0.38;;;0.30;;
19794;SDS011;10057;59.402;17.866;2022-07-29T12:43:30;0.30;;;0.30;;
19794;SDS011;10057;59.402;17.866;2022-07-29T12:45:57;0.75;;;0.30;;
19794;SDS011;10057;59.402;17.866;2022-07-29T12:48:41;0.73;;;0.40;;
19794;SDS011;10057;59.402;17.866;2022-07-29T12:51:09;0.68;;;0.30;;
19794;SDS011;10057;59.402;17.866;2022-07-29T12:53:38;2.25;;;0.38;;
19794;SDS011;10057;59.402;17.866;2022-07-29T12:56:05;0.73;;;0.30;;
19794;SDS011;10057;59.402;17.866;2022-07-29T12:59:10;1.08;;;0.55;;
19794;SDS011;10057;59.402;17.866;2022-07-29T13:01:49;0.60;;;0.35;;
19794;SDS011;10057;59.402;17.866;2022-07-29T13:09:36;1.80;;;0.32;;
19794;SDS011;10057;59.402;17.866;2022-07-29T13:12:07;0.52;;;0.30;;
19794;SDS011;10057;59.402;17.866;2022-07-29T13:14:37;0.65;;;0.30;;
19794;SDS011;10057;59.402;17.866;2022-07-29T13:17:07;0.80;;;0.38;;
19794;SDS011;10057;59.402;17.866;2022-07-29T13:19:40;0.75;;;0.40;;
19794;SDS011;10057;59.402;17.866;2022-07-29T13:22:34;1.25;;;0.50;;
19794;SDS011;10057;59.402;17.866;2022-07-29T13:25:01;0.32;;;0.30;;
19794;SDS011;10057;59.402;17.866;2022-07-29T13:27:29;0.52;;;0.30;;
19794;SDS011;10057;59.402;17.866;2022-07-29T13:30:06;0.57;;;0.40;;
19794;SDS011;10057;59.402;17.866;2022-07-29T13:32:35;1.55;;;0.40;;
19794;SDS011;10057;59.402;17.866;2022-07-29T13:35:06;0.45;;;0.35;;
19794;SDS011;10057;59.402;17.866;2022-07-29T13:37:35;0.50;;;0.40;;
19794;SDS011;10057;59.402;17.866;2022-07-29T13:40:05;0.60;;;0.40;;
19794;SDS011;10057;59.402;17.866;2022-07-29T13:42:36;0.90;;;0.50;;
19794;SDS011;10057;59.402;17.866;2022-07-29T13:45:03;0.57;;;0.40;;
19794;SDS011;10057;59.402;17.866;2022-07-29T13:47:31;0.50;;;0.40;;
19794;SDS011;10057;59.402;17.866;2022-07-29T13:49:59;0.30;;;0.30;;
19794;SDS011;10057;59.402;17.866;2022-07-29T13:52:27;0.88;;;0.40;;
19794;SDS011;10057;59.402;17.866;2022-07-29T13:54:53;1.73;;;0.60;;
19794;SDS011;10057;59.402;17.866;2022-07-29T13:57:20;3.08;;;0.50;;
19794;SDS011;10057;59.402;17.866;2022-07-29T13:59:47;0.43;;;0.40;;
19794;SDS011;10057;59.402;17.866;2022-07-29T14:02:19;0.52;;;0.35;;
19794;SDS011;10057;59.402;17.866;2022-07-29T14:04:46;0.57;;;0.45;;
19794;SDS011;10057;59.402;17.866;2022-07-29T14:07:13;0.98;;;0.30;;
19794;SDS011;10057;59.402;17.866;2022-07-29T14:09:41;0.93;;;0.40;;
19794;SDS011;10057;59.402;17.866;2022-07-29T14:12:08;1.00;;;0.45;;
19794;SDS011;10057;59.402;17.866;2022-07-29T14:14:35;0.30;;;0.30;;
19794;SDS011;10057;59.402;17.866;2022-07-29T14:17:03;0.57;;;0.38;;
19794;SDS011;10057;59.402;17.866;2022-07-29T14:19:33;0.57;;;0.40;;
19794;SDS011;10057;59.402;17.866;2022-07-29T14:22:02;0.52;;;0.40;;
19794;SDS011;10057;59.402;17.866;2022-07-29T14:24:30;0.85;;;0.30;;
19794;SDS011;10057;59.402;17.866;2022-07-29T14:27:01;0.30;;;0.30;;
19794;SDS011;10057;59.402;17.866;2022-07-29T14:29:28;0.40;;;0.40;;
19794;SDS011;10057;59.402;17.866;2022-07-29T14:32:03;0.52;;;0.40;;
19794;SDS011;10057;59.402;17.866;2022-07-29T14:34:32;0.63;;;0.40;;
19794;SDS011;10057;59.402;17.866;2022-07-29T14:36:59;0.73;;;0.50;;
19794;SDS011;10057;59.402;17.866;2022-07-29T14:39:26;0.85;;;0.40;;
19794;SDS011;10057;59.402;17.866;2022-07-29T14:41:57;0.30;;;0.30;;
19794;SDS011;10057;59.402;17.866;2022-07-29T14:44:24;0.40;;;0.40;;
19794;SDS011;10057;59.402;17.866;2022-07-29T14:47:00;1.10;;;0.70;;
19794;SDS011;10057;59.402;17.866;2022-07-29T14:49:33;0.75;;;0.50;;
19794;SDS011;10057;59.402;17.866;2022-07-29T14:52:00;1.60;;;0.50;;
19794;SDS011;10057;59.402;17.866;2022-07-29T14:54:27;0.80;;;0.50;;
19794;SDS011;10057;59.402;17.866;2022-07-29T14:56:53;0.50;;;0.43;;
19794;SDS011;10057;59.402;17.866;2022-07-29T14:59:23;0.95;;;0.57;;
19794;SDS011;10057;59.402;17.866;2022-07-29T15:01:53;0.68;;;0.50;;
19794;SDS011;10057;59.402;17.866;2022-07-29T15:04:23;2.17;;;0.47;;
19794;SDS011;10057;59.402;17.866;2022-07-29T15:06:52;0.45;;;0.40;;
19794;SDS011;10057;59.402;17.866;2022-07-29T15:09:20;0.65;;;0.32;;
19794;SDS011;10057;59.402;17.866;2022-07-29T15:11:47;0.47;;;0.40;;
19794;SDS011;10057;59.402;17.866;2022-07-29T15:14:13;0.40;;;0.30;;
19794;SDS011;10057;59.402;17.866;2022-07-29T15:16:40;0.60;;;0.40;;
19794;SDS011;10057;59.402;17.866;2022-07-29T15:19:12;0.50;;;0.30;;
19794;SDS011;10057;59.402;17.866;2022-07-29T15:21:38;0.43;;;0.38;;
19794;SDS011;10057;59.402;17.866;2022-07-29T15:24:13;0.50;;;0.40;;
19794;SDS011;10057;59.402;17.866;2022-07-29T15:26:39;0.52;;;0.30;;
19794;SDS011;10057;59.402;17.866;2022-07-29T15:29:06;0.50;;;0.45;;
19794;SDS011;10057;59.402;17.866;2022-07-29T15:31:33;0.50;;;0.40;;
19794;SDS011;10057;59.402;17.866;2022-07-29T15:34:00;0.75;;;0.40;;
19794;SDS011;10057;59.402;17.866;2022-07-29T15:36:31;2.92;;;0.50;;
19794;SDS011;10057;59.402;17.866;2022-07-29T15:39:20;0.82;;;0.50;;
19794;SDS011;10057;59.402;17.866;2022-07-29T15:41:48;0.80;;;0.40;;
19794;SDS011;10057;59.402;17.866;2022-07-29T15:44:15;0.50;;;0.50;;
19794;SDS011;10057;59.402;17.866;2022-07-29T15:46:42;0.50;;;0.45;;
19794;SDS011;10057;59.402;17.866;2022-07-29T15:49:34;0.65;;;0.50;;
19794;SDS011;10057;59.402;17.866;2022-07-29T15:52:12;0.70;;;0.50;;
19794;SDS011;10057;59.402;17.866;2022-07-29T15:54:38;0.98;;;0.55;;
19794;SDS011;10057;59.402;17.866;2022-07-29T15:57:08;0.60;;;0.40;;